Portada
METAR-TAF:

METAR-TAF

Aeroports :

Sarnia, Ontàrio, Canadà

latitud: 43-00N, longitud: 082-19W, altitud: 181 m

Observació

L'informe es va fer fa 23 minuts, a les 15:08 UTC
Vent 11 kt del Nord-Oest amb ràfegues de 17 kt
Temperatura -6°C
Humitat 73%
Pressió 1033 hPa
Visibilitat: 14.5 km
Núvols disperses a una alçada de 3600 ft

METAR: CYZR 201508Z AUTO 32011G17KT 9SM SCT036 M06/M10 A3050 RMK SLP340

Hora: 10:31 (15:31 UTC)

Pronòstic

L'informe es va fer fa 1 hora i 53 minuts, a les 13:38 UTC
Pronòstic vàlid del 20 a les 14 UTC al 21 a les 02 UTC
Vent 12 kt del Nord-Oest
Visibilitat: 10 km
Cel ennuvolat a una alçada de 3000 ft
Temporalment
l' 20 a les 14 UTC al 20 a les 24 UTC
xàfecs de neu
A partir de les 21 a les 0000 UTC
Vent 8 kt del Oest/Nord-Oest
Visibilitat: 10 km
Escasses núvols a una alçada de 3000 ft

TAF: CYZR 201338Z 2014/2102 31012KT P6SM BKN030 TEMPO 2014/2024 21/2SM -SHSN FM210000 30008KT P6SM FEW030 RMK FCST BASED ON AUTO OBS. NXT FCST BY 202000Z

Observacions i pronòstics meteorològics de més de 4000 aeroports (METAR i TAF).

Les estacions disponibles són els punts grocs i vermells al mapa.

Posi el ratolí al punt desitjat per veure el nom de l'estació.

Feu clic per veure les observacions i els pronòstics meteorològics.

Per canviar el mapa: feu clic els botons verds amb una creu de color negre per apropar; al botó verd amb un guió per allunyar la imatge; o en les fletxes verdes per a mapes adjacents.


METAR-TAF: